sensor_id;sensor_type;location;lat;lon;timestamp;pressure;altitude;pressure_sealevel;temperature
41940;BMP180;23057;48.554;14.454;2023-07-08T00:01:30;94328.00;;;23.20
41940;BMP180;23057;48.554;14.454;2023-07-08T00:04:01;94324.00;;;23.20
41940;BMP180;23057;48.554;14.454;2023-07-08T00:06:35;94322.00;;;23.20
41940;BMP180;23057;48.554;14.454;2023-07-08T00:09:10;94320.00;;;23.20
41940;BMP180;23057;48.554;14.454;2023-07-08T00:11:42;94325.00;;;23.10
41940;BMP180;23057;48.554;14.454;2023-07-08T00:14:13;94329.00;;;23.00
41940;BMP180;23057;48.554;14.454;2023-07-08T00:16:44;94325.00;;;22.80
41940;BMP180;23057;48.554;14.454;2023-07-08T00:19:16;94321.00;;;22.70
41940;BMP180;23057;48.554;14.454;2023-07-08T00:21:50;94327.00;;;22.60
41940;BMP180;23057;48.554;14.454;2023-07-08T00:24:22;94325.00;;;22.50
41940;BMP180;23057;48.554;14.454;2023-07-08T00:26:53;94329.00;;;22.40
41940;BMP180;23057;48.554;14.454;2023-07-08T00:29:24;94325.00;;;22.30
41940;BMP180;23057;48.554;14.454;2023-07-08T00:31:55;94324.00;;;22.30
41940;BMP180;23057;48.554;14.454;2023-07-08T00:34:25;94327.00;;;22.20
41940;BMP180;23057;48.554;14.454;2023-07-08T00:36:56;94331.00;;;22.10
41940;BMP180;23057;48.554;14.454;2023-07-08T00:39:27;94325.00;;;22.00
41940;BMP180;23057;48.554;14.454;2023-07-08T00:42:00;94325.00;;;21.90
41940;BMP180;23057;48.554;14.454;2023-07-08T00:44:36;94322.00;;;21.80
41940;BMP180;23057;48.554;14.454;2023-07-08T00:47:11;94316.00;;;21.70
41940;BMP180;23057;48.554;14.454;2023-07-08T00:49:52;94313.00;;;21.70
41940;BMP180;23057;48.554;14.454;2023-07-08T00:52:30;94315.00;;;21.60
41940;BMP180;23057;48.554;14.454;2023-07-08T00:55:09;94303.00;;;21.60
41940;BMP180;23057;48.554;14.454;2023-07-08T00:57:43;94304.00;;;21.60
41940;BMP180;23057;48.554;14.454;2023-07-08T01:00:17;94295.00;;;21.60
41940;BMP180;23057;48.554;14.454;2023-07-08T01:02:56;94298.00;;;21.60
41940;BMP180;23057;48.554;14.454;2023-07-08T01:05:29;94297.00;;;21.60
41940;BMP180;23057;48.554;14.454;2023-07-08T01:08:04;94290.00;;;21.60
41940;BMP180;23057;48.554;14.454;2023-07-08T01:10:45;94284.00;;;21.60
41940;BMP180;23057;48.554;14.454;2023-07-08T01:13:22;94288.00;;;21.60
41940;BMP180;23057;48.554;14.454;2023-07-08T01:15:54;94291.00;;;21.60
41940;BMP180;23057;48.554;14.454;2023-07-08T01:18:25;94291.00;;;21.50
41940;BMP180;23057;48.554;14.454;2023-07-08T01:21:03;94285.00;;;21.40
41940;BMP180;23057;48.554;14.454;2023-07-08T01:23:36;94277.00;;;21.30
41940;BMP180;23057;48.554;14.454;2023-07-08T01:26:07;94279.00;;;21.20
41940;BMP180;23057;48.554;14.454;2023-07-08T01:28:38;94274.00;;;21.10
41940;BMP180;23057;48.554;14.454;2023-07-08T01:31:09;94269.00;;;21.10
41940;BMP180;23057;48.554;14.454;2023-07-08T01:33:40;94264.00;;;21.10
41940;BMP180;23057;48.554;14.454;2023-07-08T01:36:12;94264.00;;;21.00
41940;BMP180;23057;48.554;14.454;2023-07-08T01:38:44;94257.00;;;21.00
41940;BMP180;23057;48.554;14.454;2023-07-08T01:41:17;94246.00;;;21.00
41940;BMP180;23057;48.554;14.454;2023-07-08T01:43:48;94249.00;;;21.00
41940;BMP180;23057;48.554;14.454;2023-07-08T01:46:24;94244.00;;;20.90
41940;BMP180;23057;48.554;14.454;2023-07-08T01:49:00;94245.00;;;20.90
41940;BMP180;23057;48.554;14.454;2023-07-08T01:51:32;94240.00;;;20.80
41940;BMP180;23057;48.554;14.454;2023-07-08T01:54:03;94228.00;;;20.70
41940;BMP180;23057;48.554;14.454;2023-07-08T01:56:34;94226.00;;;20.70
41940;BMP180;23057;48.554;14.454;2023-07-08T01:59:04;94229.00;;;20.60
41940;BMP180;23057;48.554;14.454;2023-07-08T02:01:36;94223.00;;;20.50
41940;BMP180;23057;48.554;14.454;2023-07-08T02:04:06;94226.00;;;20.40
41940;BMP180;23057;48.554;14.454;2023-07-08T02:06:37;94222.00;;;20.40
41940;BMP180;23057;48.554;14.454;2023-07-08T02:09:08;94222.00;;;20.30
41940;BMP180;23057;48.554;14.454;2023-07-08T02:11:39;94224.00;;;20.20
41940;BMP180;23057;48.554;14.454;2023-07-08T02:14:10;94223.00;;;20.20
41940;BMP180;23057;48.554;14.454;2023-07-08T02:16:41;94223.00;;;20.10
41940;BMP180;23057;48.554;14.454;2023-07-08T02:19:12;94227.00;;;20.10
41940;BMP180;23057;48.554;14.454;2023-07-08T02:21:43;94225.00;;;20.00
41940;BMP180;23057;48.554;14.454;2023-07-08T02:24:14;94217.00;;;20.00
41940;BMP180;23057;48.554;14.454;2023-07-08T02:26:47;94222.00;;;20.00
41940;BMP180;23057;48.554;14.454;2023-07-08T02:29:18;94224.00;;;20.00
41940;BMP180;23057;48.554;14.454;2023-07-08T02:31:48;94212.00;;;20.00
41940;BMP180;23057;48.554;14.454;2023-07-08T02:34:19;94216.00;;;19.90
41940;BMP180;23057;48.554;14.454;2023-07-08T02:36:50;94215.00;;;19.90
41940;BMP180;23057;48.554;14.454;2023-07-08T02:39:22;94206.00;;;19.90
41940;BMP180;23057;48.554;14.454;2023-07-08T02:41:53;94212.00;;;19.80
41940;BMP180;23057;48.554;14.454;2023-07-08T02:44:24;94223.00;;;19.80
41940;BMP180;23057;48.554;14.454;2023-07-08T02:46:57;94220.00;;;19.70
41940;BMP180;23057;48.554;14.454;2023-07-08T02:49:29;94226.00;;;19.70
41940;BMP180;23057;48.554;14.454;2023-07-08T02:52:00;94220.00;;;19.60
41940;BMP180;23057;48.554;14.454;2023-07-08T02:54:31;94226.00;;;19.60
41940;BMP180;23057;48.554;14.454;2023-07-08T02:57:02;94226.00;;;19.60
41940;BMP180;23057;48.554;14.454;2023-07-08T02:59:33;94231.00;;;19.60
41940;BMP180;23057;48.554;14.454;2023-07-08T03:02:04;94228.00;;;19.60
41940;BMP180;23057;48.554;14.454;2023-07-08T03:04:36;94231.00;;;19.60
41940;BMP180;23057;48.554;14.454;2023-07-08T03:07:11;94227.00;;;19.50
41940;BMP180;23057;48.554;14.454;2023-07-08T03:09:42;94230.00;;;19.50
41940;BMP180;23057;48.554;14.454;2023-07-08T03:12:13;94218.00;;;19.50
41940;BMP180;23057;48.554;14.454;2023-07-08T03:14:44;94220.00;;;19.50
41940;BMP180;23057;48.554;14.454;2023-07-08T03:17:15;94231.00;;;19.50
41940;BMP180;23057;48.554;14.454;2023-07-08T03:19:47;94231.00;;;19.40
41940;BMP180;23057;48.554;14.454;2023-07-08T03:22:18;94223.00;;;19.40
41940;BMP180;23057;48.554;14.454;2023-07-08T03:24:48;94231.00;;;19.40
41940;BMP180;23057;48.554;14.454;2023-07-08T03:27:19;94223.00;;;19.50
41940;BMP180;23057;48.554;14.454;2023-07-08T03:29:51;94229.00;;;19.60
41940;BMP180;23057;48.554;14.454;2023-07-08T03:32:22;94230.00;;;19.70
41940;BMP180;23057;48.554;14.454;2023-07-08T03:34:52;94226.00;;;19.90
41940;BMP180;23057;48.554;14.454;2023-07-08T03:37:24;94225.00;;;20.20
41940;BMP180;23057;48.554;14.454;2023-07-08T03:39:55;94226.00;;;20.40
41940;BMP180;23057;48.554;14.454;2023-07-08T03:42:25;94230.00;;;20.60
41940;BMP180;23057;48.554;14.454;2023-07-08T03:44:56;94220.00;;;20.80
41940;BMP180;23057;48.554;14.454;2023-07-08T03:47:27;94227.00;;;20.90
41940;BMP180;23057;48.554;14.454;2023-07-08T03:49:58;94227.00;;;21.10
41940;BMP180;23057;48.554;14.454;2023-07-08T03:52:29;94221.00;;;21.40
41940;BMP180;23057;48.554;14.454;2023-07-08T03:55:00;94225.00;;;21.60
41940;BMP180;23057;48.554;14.454;2023-07-08T03:57:30;94222.00;;;21.70
41940;BMP180;23057;48.554;14.454;2023-07-08T04:00:01;94229.00;;;21.70
41940;BMP180;23057;48.554;14.454;2023-07-08T04:02:32;94232.00;;;21.80
41940;BMP180;23057;48.554;14.454;2023-07-08T04:05:03;94232.00;;;22.10
41940;BMP180;23057;48.554;14.454;2023-07-08T04:07:34;94229.00;;;22.10
41940;BMP180;23057;48.554;14.454;2023-07-08T04:10:06;94230.00;;;22.20
41940;BMP180;23057;48.554;14.454;2023-07-08T04:12:38;94236.00;;;22.00
41940;BMP180;23057;48.554;14.454;2023-07-08T04:15:11;94214.00;;;21.80
41940;BMP180;23057;48.554;14.454;2023-07-08T04:17:48;94221.00;;;21.60
41940;BMP180;23057;48.554;14.454;2023-07-08T04:20:19;94216.00;;;21.60
41940;BMP180;23057;48.554;14.454;2023-07-08T04:22:50;94225.00;;;21.60
41940;BMP180;23057;48.554;14.454;2023-07-08T04:25:21;94214.00;;;21.80
41940;BMP180;23057;48.554;14.454;2023-07-08T04:27:55;94217.00;;;22.00
41940;BMP180;23057;48.554;14.454;2023-07-08T04:30:26;94220.00;;;22.20
41940;BMP180;23057;48.554;14.454;2023-07-08T04:32:57;94217.00;;;22.40
41940;BMP180;23057;48.554;14.454;2023-07-08T04:35:28;94225.00;;;22.60
41940;BMP180;23057;48.554;14.454;2023-07-08T04:38:01;94219.00;;;22.60
41940;BMP180;23057;48.554;14.454;2023-07-08T04:40:31;94222.00;;;22.90
41940;BMP180;23057;48.554;14.454;2023-07-08T04:43:03;94223.00;;;23.20
41940;BMP180;23057;48.554;14.454;2023-07-08T04:45:34;94228.00;;;23.40
41940;BMP180;23057;48.554;14.454;2023-07-08T04:48:07;94229.00;;;23.60
41940;BMP180;23057;48.554;14.454;2023-07-08T04:50:48;94225.00;;;23.70
41940;BMP180;23057;48.554;14.454;2023-07-08T04:53:20;94225.00;;;24.00
41940;BMP180;23057;48.554;14.454;2023-07-08T04:55:55;94220.00;;;24.20
41940;BMP180;23057;48.554;14.454;2023-07-08T04:58:26;94224.00;;;24.40
41940;BMP180;23057;48.554;14.454;2023-07-08T05:00:57;94227.00;;;24.50
41940;BMP180;23057;48.554;14.454;2023-07-08T05:03:28;94230.00;;;24.50
41940;BMP180;23057;48.554;14.454;2023-07-08T05:05:59;94220.00;;;24.40
41940;BMP180;23057;48.554;14.454;2023-07-08T05:08:30;94213.00;;;24.50
41940;BMP180;23057;48.554;14.454;2023-07-08T05:11:01;94218.00;;;24.60
41940;BMP180;23057;48.554;14.454;2023-07-08T05:13:31;94214.00;;;24.80
41940;BMP180;23057;48.554;14.454;2023-07-08T05:16:02;94218.00;;;25.10
41940;BMP180;23057;48.554;14.454;2023-07-08T05:18:33;94213.00;;;25.20
41940;BMP180;23057;48.554;14.454;2023-07-08T05:21:04;94220.00;;;25.50
41940;BMP180;23057;48.554;14.454;2023-07-08T05:23:36;94217.00;;;25.80
41940;BMP180;23057;48.554;14.454;2023-07-08T05:26:07;94215.00;;;25.90
41940;BMP180;23057;48.554;14.454;2023-07-08T05:28:38;94220.00;;;26.10
41940;BMP180;23057;48.554;14.454;2023-07-08T05:31:09;94215.00;;;26.20
41940;BMP180;23057;48.554;14.454;2023-07-08T05:33:40;94217.00;;;26.20
41940;BMP180;23057;48.554;14.454;2023-07-08T05:36:11;94213.00;;;26.30
41940;BMP180;23057;48.554;14.454;2023-07-08T05:38:46;94209.00;;;26.50
41940;BMP180;23057;48.554;14.454;2023-07-08T05:41:19;94211.00;;;26.70
41940;BMP180;23057;48.554;14.454;2023-07-08T05:43:50;94211.00;;;26.80
41940;BMP180;23057;48.554;14.454;2023-07-08T05:46:21;94206.00;;;26.90
41940;BMP180;23057;48.554;14.454;2023-07-08T05:48:52;94210.00;;;26.80
41940;BMP180;23057;48.554;14.454;2023-07-08T05:51:24;94205.00;;;26.70
41940;BMP180;23057;48.554;14.454;2023-07-08T05:53:55;94214.00;;;26.60
41940;BMP180;23057;48.554;14.454;2023-07-08T05:56:26;94220.00;;;26.40
41940;BMP180;23057;48.554;14.454;2023-07-08T05:58:57;94220.00;;;26.20
41940;BMP180;23057;48.554;14.454;2023-07-08T06:01:28;94219.00;;;26.00
41940;BMP180;23057;48.554;14.454;2023-07-08T06:03:58;94218.00;;;25.90
41940;BMP180;23057;48.554;14.454;2023-07-08T06:06:30;94227.00;;;25.80
41940;BMP180;23057;48.554;14.454;2023-07-08T06:09:01;94226.00;;;25.80
41940;BMP180;23057;48.554;14.454;2023-07-08T06:11:32;94231.00;;;25.80
41940;BMP180;23057;48.554;14.454;2023-07-08T06:14:02;94236.00;;;25.80
41940;BMP180;23057;48.554;14.454;2023-07-08T06:16:34;94230.00;;;26.00
41940;BMP180;23057;48.554;14.454;2023-07-08T06:19:05;94217.00;;;26.20
41940;BMP180;23057;48.554;14.454;2023-07-08T06:21:38;94224.00;;;26.40
41940;BMP180;23057;48.554;14.454;2023-07-08T06:24:08;94226.00;;;26.70
41940;BMP180;23057;48.554;14.454;2023-07-08T06:26:39;94220.00;;;27.10
41940;BMP180;23057;48.554;14.454;2023-07-08T06:29:10;94226.00;;;27.50
41940;BMP180;23057;48.554;14.454;2023-07-08T06:31:42;94218.00;;;28.00
41940;BMP180;23057;48.554;14.454;2023-07-08T06:34:12;94213.00;;;28.50
41940;BMP180;23057;48.554;14.454;2023-07-08T06:36:43;94220.00;;;28.80
41940;BMP180;23057;48.554;14.454;2023-07-08T06:39:14;94220.00;;;29.20
41940;BMP180;23057;48.554;14.454;2023-07-08T06:41:45;94225.00;;;29.60
41940;BMP180;23057;48.554;14.454;2023-07-08T06:44:16;94217.00;;;29.90
41940;BMP180;23057;48.554;14.454;2023-07-08T06:46:47;94222.00;;;30.20
41940;BMP180;23057;48.554;14.454;2023-07-08T06:49:18;94215.00;;;30.50
41940;BMP180;23057;48.554;14.454;2023-07-08T06:51:49;94216.00;;;30.90
41940;BMP180;23057;48.554;14.454;2023-07-08T06:54:20;94223.00;;;31.20
41940;BMP180;23057;48.554;14.454;2023-07-08T06:56:50;94214.00;;;31.40
41940;BMP180;23057;48.554;14.454;2023-07-08T06:59:21;94219.00;;;31.60
41940;BMP180;23057;48.554;14.454;2023-07-08T07:01:52;94215.00;;;31.60
41940;BMP180;23057;48.554;14.454;2023-07-08T07:04:23;94216.00;;;31.70
41940;BMP180;23057;48.554;14.454;2023-07-08T07:06:54;94218.00;;;31.80
41940;BMP180;23057;48.554;14.454;2023-07-08T07:09:24;94215.00;;;31.90
41940;BMP180;23057;48.554;14.454;2023-07-08T07:11:55;94214.00;;;32.10
41940;BMP180;23057;48.554;14.454;2023-07-08T07:14:26;94216.00;;;32.20
41940;BMP180;23057;48.554;14.454;2023-07-08T07:16:57;94225.00;;;32.40
41940;BMP180;23057;48.554;14.454;2023-07-08T07:19:28;94219.00;;;32.50
41940;BMP180;23057;48.554;14.454;2023-07-08T07:21:58;94228.00;;;32.50
41940;BMP180;23057;48.554;14.454;2023-07-08T07:24:29;94227.00;;;32.40
41940;BMP180;23057;48.554;14.454;2023-07-08T07:27:00;94228.00;;;32.40
41940;BMP180;23057;48.554;14.454;2023-07-08T07:29:48;94226.00;;;32.60
41940;BMP180;23057;48.554;14.454;2023-07-08T07:32:23;94227.00;;;32.70
41940;BMP180;23057;48.554;14.454;2023-07-08T07:34:55;94222.00;;;32.90
41940;BMP180;23057;48.554;14.454;2023-07-08T07:37:26;94219.00;;;33.00
41940;BMP180;23057;48.554;14.454;2023-07-08T07:39:56;94216.00;;;33.00
41940;BMP180;23057;48.554;14.454;2023-07-08T07:42:28;94213.00;;;33.10
41940;BMP180;23057;48.554;14.454;2023-07-08T07:44:59;94215.00;;;33.10
41940;BMP180;23057;48.554;14.454;2023-07-08T07:47:30;94221.00;;;33.10
41940;BMP180;23057;48.554;14.454;2023-07-08T07:50:02;94215.00;;;33.10
41940;BMP180;23057;48.554;14.454;2023-07-08T07:52:36;94211.00;;;33.10
41940;BMP180;23057;48.554;14.454;2023-07-08T07:55:08;94225.00;;;33.20
41940;BMP180;23057;48.554;14.454;2023-07-08T07:57:39;94215.00;;;33.20
41940;BMP180;23057;48.554;14.454;2023-07-08T08:00:13;94220.00;;;33.20
41940;BMP180;23057;48.554;14.454;2023-07-08T08:02:44;94223.00;;;33.20
41940;BMP180;23057;48.554;14.454;2023-07-08T08:05:15;94214.00;;;33.20
41940;BMP180;23057;48.554;14.454;2023-07-08T08:07:47;94214.00;;;33.10
41940;BMP180;23057;48.554;14.454;2023-07-08T08:10:18;94210.00;;;33.10
41940;BMP180;23057;48.554;14.454;2023-07-08T08:12:49;94220.00;;;33.10
41940;BMP180;23057;48.554;14.454;2023-07-08T08:15:22;94212.00;;;33.00
41940;BMP180;23057;48.554;14.454;2023-07-08T08:17:53;94212.00;;;33.10
41940;BMP180;23057;48.554;14.454;2023-07-08T08:20:25;94209.00;;;33.10
41940;BMP180;23057;48.554;14.454;2023-07-08T08:22:58;94217.00;;;33.30
41940;BMP180;23057;48.554;14.454;2023-07-08T08:25:29;94216.00;;;33.30
41940;BMP180;23057;48.554;14.454;2023-07-08T08:28:00;94217.00;;;33.40
41940;BMP180;23057;48.554;14.454;2023-07-08T08:30:32;94212.00;;;33.40
41940;BMP180;23057;48.554;14.454;2023-07-08T08:33:03;94221.00;;;33.50
41940;BMP180;23057;48.554;14.454;2023-07-08T08:35:34;94216.00;;;33.50
41940;BMP180;23057;48.554;14.454;2023-07-08T08:38:05;94224.00;;;33.60
41940;BMP180;23057;48.554;14.454;2023-07-08T08:40:37;94235.00;;;33.60
41940;BMP180;23057;48.554;14.454;2023-07-08T08:43:17;94230.00;;;33.60
41940;BMP180;23057;48.554;14.454;2023-07-08T08:46:00;94224.00;;;33.80
41940;BMP180;23057;48.554;14.454;2023-07-08T08:48:51;94235.00;;;34.00
41940;BMP180;23057;48.554;14.454;2023-07-08T08:51:28;94238.00;;;34.00
41940;BMP180;23057;48.554;14.454;2023-07-08T08:54:02;94234.00;;;34.10
41940;BMP180;23057;48.554;14.454;2023-07-08T09:00:11;94237.00;;;34.30
41940;BMP180;23057;48.554;14.454;2023-07-08T09:03:12;94229.00;;;34.30
41940;BMP180;23057;48.554;14.454;2023-07-08T09:05:46;94229.00;;;34.30
41940;BMP180;23057;48.554;14.454;2023-07-08T09:08:32;94231.00;;;34.50
41940;BMP180;23057;48.554;14.454;2023-07-08T09:11:36;94231.00;;;34.60
41940;BMP180;23057;48.554;14.454;2023-07-08T09:14:18;94233.00;;;34.70
41940;BMP180;23057;48.554;14.454;2023-07-08T09:17:17;94219.00;;;34.80
41940;BMP180;23057;48.554;14.454;2023-07-08T09:20:25;94222.00;;;34.80
41940;BMP180;23057;48.554;14.454;2023-07-08T09:23:22;94225.00;;;34.70
41940;BMP180;23057;48.554;14.454;2023-07-08T09:26:07;94223.00;;;34.70
41940;BMP180;23057;48.554;14.454;2023-07-08T09:28:45;94223.00;;;34.80
41940;BMP180;23057;48.554;14.454;2023-07-08T09:31:30;94222.00;;;35.00
41940;BMP180;23057;48.554;14.454;2023-07-08T09:34:16;94219.00;;;35.10
41940;BMP180;23057;48.554;14.454;2023-07-08T09:36:51;94223.00;;;35.30
41940;BMP180;23057;48.554;14.454;2023-07-08T09:39:23;94217.00;;;35.40
41940;BMP180;23057;48.554;14.454;2023-07-08T09:41:54;94215.00;;;35.60
41940;BMP180;23057;48.554;14.454;2023-07-08T09:44:28;94222.00;;;35.70
41940;BMP180;23057;48.554;14.454;2023-07-08T09:47:00;94218.00;;;35.90
41940;BMP180;23057;48.554;14.454;2023-07-08T09:49:34;94226.00;;;35.90
41940;BMP180;23057;48.554;14.454;2023-07-08T09:52:05;94237.00;;;35.80
41940;BMP180;23057;48.554;14.454;2023-07-08T09:54:37;94226.00;;;35.70
41940;BMP180;23057;48.554;14.454;2023-07-08T09:57:33;94228.00;;;35.90
41940;BMP180;23057;48.554;14.454;2023-07-08T10:00:15;94223.00;;;36.00
41940;BMP180;23057;48.554;14.454;2023-07-08T10:02:57;94222.00;;;36.10
41940;BMP180;23057;48.554;14.454;2023-07-08T10:05:35;94236.00;;;36.20
41940;BMP180;23057;48.554;14.454;2023-07-08T10:08:21;94231.00;;;36.20
41940;BMP180;23057;48.554;14.454;2023-07-08T10:13:53;94250.00;;;36.40
41940;BMP180;23057;48.554;14.454;2023-07-08T10:16:32;94251.00;;;36.40
41940;BMP180;23057;48.554;14.454;2023-07-08T10:19:14;94234.00;;;36.50
41940;BMP180;23057;48.554;14.454;2023-07-08T10:28:47;94238.00;;;36.30
41940;BMP180;23057;48.554;14.454;2023-07-08T10:31:56;94245.00;;;36.20
41940;BMP180;23057;48.554;14.454;2023-07-08T10:35:04;94249.00;;;36.10
41940;BMP180;23057;48.554;14.454;2023-07-08T11:06:19;94238.00;;;36.70
41940;BMP180;23057;48.554;14.454;2023-07-08T11:09:00;94234.00;;;36.70
41940;BMP180;23057;48.554;14.454;2023-07-08T11:12:00;94235.00;;;36.60
41940;BMP180;23057;48.554;14.454;2023-07-08T11:15:23;94234.00;;;36.50
41940;BMP180;23057;48.554;14.454;2023-07-08T11:18:33;94235.00;;;36.30
41940;BMP180;23057;48.554;14.454;2023-07-08T11:21:16;94230.00;;;36.30
41940;BMP180;23057;48.554;14.454;2023-07-08T11:24:04;94228.00;;;36.40
41940;BMP180;23057;48.554;14.454;2023-07-08T11:27:07;94237.00;;;36.30
41940;BMP180;23057;48.554;14.454;2023-07-08T11:30:14;94233.00;;;36.30
41940;BMP180;23057;48.554;14.454;2023-07-08T11:32:59;94235.00;;;36.30
41940;BMP180;23057;48.554;14.454;2023-07-08T11:35:38;94238.00;;;36.20
41940;BMP180;23057;48.554;14.454;2023-07-08T11:38:17;94226.00;;;36.00
41940;BMP180;23057;48.554;14.454;2023-07-08T11:43:52;94218.00;;;36.20
41940;BMP180;23057;48.554;14.454;2023-07-08T11:46:28;94229.00;;;36.40
41940;BMP180;23057;48.554;14.454;2023-07-08T11:49:13;94229.00;;;36.50
41940;BMP180;23057;48.554;14.454;2023-07-08T11:51:47;94225.00;;;36.50
41940;BMP180;23057;48.554;14.454;2023-07-08T11:54:36;94220.00;;;36.50
41940;BMP180;23057;48.554;14.454;2023-07-08T11:57:27;94225.00;;;36.60
41940;BMP180;23057;48.554;14.454;2023-07-08T12:00:30;94219.00;;;36.60
41940;BMP180;23057;48.554;14.454;2023-07-08T12:03:21;94211.00;;;36.60
41940;BMP180;23057;48.554;14.454;2023-07-08T12:09:00;94214.00;;;36.70
41940;BMP180;23057;48.554;14.454;2023-07-08T12:11:47;94216.00;;;36.80
41940;BMP180;23057;48.554;14.454;2023-07-08T12:14:19;94210.00;;;36.90
41940;BMP180;23057;48.554;14.454;2023-07-08T12:16:50;94218.00;;;37.00
41940;BMP180;23057;48.554;14.454;2023-07-08T12:19:22;94213.00;;;37.10
41940;BMP180;23057;48.554;14.454;2023-07-08T12:21:56;94213.00;;;37.10
41940;BMP180;23057;48.554;14.454;2023-07-08T12:24:26;94212.00;;;37.20
41940;BMP180;23057;48.554;14.454;2023-07-08T12:26:58;94213.00;;;37.20
41940;BMP180;23057;48.554;14.454;2023-07-08T12:29:28;94215.00;;;37.10
41940;BMP180;23057;48.554;14.454;2023-07-08T12:31:59;94215.00;;;37.10
41940;BMP180;23057;48.554;14.454;2023-07-08T12:34:32;94220.00;;;37.10
41940;BMP180;23057;48.554;14.454;2023-07-08T12:37:04;94214.00;;;37.20
41940;BMP180;23057;48.554;14.454;2023-07-08T12:39:43;94208.00;;;37.20
41940;BMP180;23057;48.554;14.454;2023-07-08T12:42:14;94209.00;;;37.10
41940;BMP180;23057;48.554;14.454;2023-07-08T12:44:45;94209.00;;;37.00
41940;BMP180;23057;48.554;14.454;2023-07-08T12:47:20;94209.00;;;37.00
41940;BMP180;23057;48.554;14.454;2023-07-08T12:49:51;94208.00;;;37.00
41940;BMP180;23057;48.554;14.454;2023-07-08T12:52:24;94205.00;;;37.10
41940;BMP180;23057;48.554;14.454;2023-07-08T12:54:55;94206.00;;;37.20
41940;BMP180;23057;48.554;14.454;2023-07-08T12:57:26;94210.00;;;37.20
41940;BMP180;23057;48.554;14.454;2023-07-08T12:59:58;94206.00;;;37.20
41940;BMP180;23057;48.554;14.454;2023-07-08T13:02:31;94203.00;;;37.20
41940;BMP180;23057;48.554;14.454;2023-07-08T13:05:05;94208.00;;;37.30
41940;BMP180;23057;48.554;14.454;2023-07-08T13:07:41;94202.00;;;37.20
41940;BMP180;23057;48.554;14.454;2023-07-08T13:10:26;94201.00;;;37.30
41940;BMP180;23057;48.554;14.454;2023-07-08T13:13:04;94209.00;;;37.30
41940;BMP180;23057;48.554;14.454;2023-07-08T13:15:40;94206.00;;;37.40
41940;BMP180;23057;48.554;14.454;2023-07-08T13:18:36;94199.00;;;37.50
41940;BMP180;23057;48.554;14.454;2023-07-08T13:21:14;94199.00;;;37.60
41940;BMP180;23057;48.554;14.454;2023-07-08T13:23:47;94205.00;;;37.60
41940;BMP180;23057;48.554;14.454;2023-07-08T13:26:23;94213.00;;;37.60
41940;BMP180;23057;48.554;14.454;2023-07-08T13:29:18;94210.00;;;37.60
41940;BMP180;23057;48.554;14.454;2023-07-08T13:31:56;94205.00;;;37.60
41940;BMP180;23057;48.554;14.454;2023-07-08T13:34:35;94208.00;;;37.50
41940;BMP180;23057;48.554;14.454;2023-07-08T13:37:12;94207.00;;;37.60
41940;BMP180;23057;48.554;14.454;2023-07-08T13:39:45;94207.00;;;37.60
41940;BMP180;23057;48.554;14.454;2023-07-08T13:42:16;94214.00;;;37.60
41940;BMP180;23057;48.554;14.454;2023-07-08T13:44:49;94221.00;;;37.60
41940;BMP180;23057;48.554;14.454;2023-07-08T13:47:29;94218.00;;;37.60
41940;BMP180;23057;48.554;14.454;2023-07-08T13:50:15;94216.00;;;37.50
41940;BMP180;23057;48.554;14.454;2023-07-08T13:52:55;94218.00;;;37.50
41940;BMP180;23057;48.554;14.454;2023-07-08T13:55:28;94214.00;;;37.50
41940;BMP180;23057;48.554;14.454;2023-07-08T13:58:01;94220.00;;;37.50
41940;BMP180;23057;48.554;14.454;2023-07-08T14:00:32;94224.00;;;37.40
41940;BMP180;23057;48.554;14.454;2023-07-08T14:03:10;94221.00;;;37.40
41940;BMP180;23057;48.554;14.454;2023-07-08T14:05:44;94226.00;;;37.20
41940;BMP180;23057;48.554;14.454;2023-07-08T14:08:17;94228.00;;;37.20
41940;BMP180;23057;48.554;14.454;2023-07-08T14:10:52;94217.00;;;37.10
41940;BMP180;23057;48.554;14.454;2023-07-08T14:13:23;94212.00;;;37.20
41940;BMP180;23057;48.554;14.454;2023-07-08T14:15:56;94215.00;;;37.00
41940;BMP180;23057;48.554;14.454;2023-07-08T14:18:27;94209.00;;;36.90
41940;BMP180;23057;48.554;14.454;2023-07-08T14:20:58;94213.00;;;36.70
41940;BMP180;23057;48.554;14.454;2023-07-08T14:23:29;94210.00;;;36.60
41940;BMP180;23057;48.554;14.454;2023-07-08T14:26:00;94212.00;;;36.60
41940;BMP180;23057;48.554;14.454;2023-07-08T14:28:30;94213.00;;;36.70
41940;BMP180;23057;48.554;14.454;2023-07-08T14:31:01;94213.00;;;36.80
41940;BMP180;23057;48.554;14.454;2023-07-08T14:33:32;94214.00;;;36.90
41940;BMP180;23057;48.554;14.454;2023-07-08T14:36:08;94205.00;;;37.00
41940;BMP180;23057;48.554;14.454;2023-07-08T14:38:40;94204.00;;;37.10
41940;BMP180;23057;48.554;14.454;2023-07-08T14:41:11;94213.00;;;37.10
41940;BMP180;23057;48.554;14.454;2023-07-08T14:43:42;94212.00;;;37.00
41940;BMP180;23057;48.554;14.454;2023-07-08T14:46:14;94211.00;;;37.00
41940;BMP180;23057;48.554;14.454;2023-07-08T14:48:47;94212.00;;;36.90
41940;BMP180;23057;48.554;14.454;2023-07-08T14:51:17;94210.00;;;36.90
41940;BMP180;23057;48.554;14.454;2023-07-08T14:53:48;94205.00;;;36.90
41940;BMP180;23057;48.554;14.454;2023-07-08T14:56:19;94201.00;;;36.80
41940;BMP180;23057;48.554;14.454;2023-07-08T14:58:50;94197.00;;;36.80
41940;BMP180;23057;48.554;14.454;2023-07-08T15:01:21;94204.00;;;36.70
41940;BMP180;23057;48.554;14.454;2023-07-08T15:03:54;94202.00;;;36.70
41940;BMP180;23057;48.554;14.454;2023-07-08T15:06:25;94185.00;;;36.60
41940;BMP180;23057;48.554;14.454;2023-07-08T15:08:56;94203.00;;;36.50
41940;BMP180;23057;48.554;14.454;2023-07-08T15:11:27;94199.00;;;36.60
41940;BMP180;23057;48.554;14.454;2023-07-08T15:13:59;94197.00;;;36.60
41940;BMP180;23057;48.554;14.454;2023-07-08T15:16:32;94189.00;;;36.60
41940;BMP180;23057;48.554;14.454;2023-07-08T15:19:10;94195.00;;;36.60
41940;BMP180;23057;48.554;14.454;2023-07-08T15:21:42;94187.00;;;36.50
41940;BMP180;23057;48.554;14.454;2023-07-08T15:24:15;94197.00;;;36.60
41940;BMP180;23057;48.554;14.454;2023-07-08T15:26:48;94190.00;;;36.50